sensor_id;sensor_type;location;lat;lon;timestamp;pressure;altitude;pressure_sealevel;temperature;humidity
37764;BME280;23602;51.084;7.090;2023-05-02T00:01:39;100434.00;;;8.66;100.00
37764;BME280;23602;51.084;7.090;2023-05-02T00:04:07;100431.94;;;8.68;100.00
37764;BME280;23602;51.084;7.090;2023-05-02T00:06:32;100434.63;;;8.68;100.00
37764;BME280;23602;51.084;7.090;2023-05-02T00:08:59;100424.75;;;8.68;100.00
37764;BME280;23602;51.084;7.090;2023-05-02T00:11:24;100424.94;;;8.67;100.00
37764;BME280;23602;51.084;7.090;2023-05-02T00:13:50;100427.38;;;8.62;100.00
37764;BME280;23602;51.084;7.090;2023-05-02T00:16:15;100427.63;;;8.67;100.00
37764;BME280;23602;51.084;7.090;2023-05-02T00:18:43;100420.59;;;8.66;100.00
37764;BME280;23602;51.084;7.090;2023-05-02T00:21:08;100418.28;;;8.63;100.00
37764;BME280;23602;51.084;7.090;2023-05-02T00:23:34;100403.25;;;8.62;100.00
37764;BME280;23602;51.084;7.090;2023-05-02T00:25:59;100412.41;;;8.53;100.00
37764;BME280;23602;51.084;7.090;2023-05-02T00:28:24;100411.16;;;8.49;100.00
37764;BME280;23602;51.084;7.090;2023-05-02T00:30:51;100416.50;;;8.49;100.00
37764;BME280;23602;51.084;7.090;2023-05-02T00:33:16;100419.56;;;8.46;100.00
37764;BME280;23602;51.084;7.090;2023-05-02T00:35:41;100420.88;;;8.35;100.00
37764;BME280;23602;51.084;7.090;2023-05-02T00:38:07;100416.72;;;8.33;100.00
37764;BME280;23602;51.084;7.090;2023-05-02T00:40:48;100420.13;;;8.26;100.00
37764;BME280;23602;51.084;7.090;2023-05-02T00:43:15;100429.53;;;8.22;100.00
37764;BME280;23602;51.084;7.090;2023-05-02T00:45:41;100436.94;;;8.20;100.00
37764;BME280;23602;51.084;7.090;2023-05-02T00:48:07;100443.78;;;8.23;100.00
37764;BME280;23602;51.084;7.090;2023-05-02T00:50:34;100442.28;;;8.20;100.00
37764;BME280;23602;51.084;7.090;2023-05-02T00:53:00;100456.69;;;8.19;100.00
37764;BME280;23602;51.084;7.090;2023-05-02T00:55:27;100459.34;;;8.19;100.00
37764;BME280;23602;51.084;7.090;2023-05-02T00:57:52;100464.97;;;8.24;100.00
37764;BME280;23602;51.084;7.090;2023-05-02T01:00:18;100469.50;;;8.24;100.00
37764;BME280;23602;51.084;7.090;2023-05-02T01:02:47;100465.19;;;8.23;100.00
37764;BME280;23602;51.084;7.090;2023-05-02T01:05:24;100473.00;;;8.24;100.00
37764;BME280;23602;51.084;7.090;2023-05-02T01:10:29;100490.50;;;8.35;100.00
37764;BME280;23602;51.084;7.090;2023-05-02T01:15:42;100494.63;;;8.38;100.00
37764;BME280;23602;51.084;7.090;2023-05-02T01:18:09;100496.59;;;8.44;100.00
37764;BME280;23602;51.084;7.090;2023-05-02T01:20:36;100494.06;;;8.42;100.00
37764;BME280;23602;51.084;7.090;2023-05-02T01:23:05;100497.97;;;8.40;100.00
37764;BME280;23602;51.084;7.090;2023-05-02T01:25:48;100499.25;;;8.44;100.00
37764;BME280;23602;51.084;7.090;2023-05-02T01:28:20;100507.66;;;8.41;100.00
37764;BME280;23602;51.084;7.090;2023-05-02T01:30:51;100505.41;;;8.44;100.00
37764;BME280;23602;51.084;7.090;2023-05-02T01:33:16;100505.69;;;8.49;100.00
37764;BME280;23602;51.084;7.090;2023-05-02T01:35:43;100514.41;;;8.51;100.00
37764;BME280;23602;51.084;7.090;2023-05-02T01:38:12;100522.22;;;8.53;100.00
37764;BME280;23602;51.084;7.090;2023-05-02T01:40:38;100522.22;;;8.53;100.00
37764;BME280;23602;51.084;7.090;2023-05-02T01:43:05;100522.59;;;8.50;100.00
37764;BME280;23602;51.084;7.090;2023-05-02T01:45:31;100524.53;;;8.56;100.00
37764;BME280;23602;51.084;7.090;2023-05-02T01:48:00;100517.97;;;8.58;100.00
37764;BME280;23602;51.084;7.090;2023-05-02T01:50:27;100516.41;;;8.64;100.00
37764;BME280;23602;51.084;7.090;2023-05-02T01:52:53;100529.78;;;8.64;100.00
37764;BME280;23602;51.084;7.090;2023-05-02T01:55:19;100531.63;;;8.63;100.00
37764;BME280;23602;51.084;7.090;2023-05-02T01:57:45;100533.94;;;8.66;100.00
37764;BME280;23602;51.084;7.090;2023-05-02T02:00:11;100540.16;;;8.67;100.00
37764;BME280;23602;51.084;7.090;2023-05-02T02:02:38;100550.66;;;8.68;100.00
37764;BME280;23602;51.084;7.090;2023-05-02T02:05:03;100558.34;;;8.71;100.00
37764;BME280;23602;51.084;7.090;2023-05-02T02:07:29;100565.59;;;8.77;100.00
37764;BME280;23602;51.084;7.090;2023-05-02T02:09:55;100558.22;;;8.79;100.00
37764;BME280;23602;51.084;7.090;2023-05-02T02:14:55;100568.66;;;8.89;100.00
37764;BME280;23602;51.084;7.090;2023-05-02T02:17:23;100576.31;;;8.92;100.00
37764;BME280;23602;51.084;7.090;2023-05-02T02:19:49;100580.28;;;8.96;100.00
37764;BME280;23602;51.084;7.090;2023-05-02T02:22:18;100584.63;;;8.97;100.00
37764;BME280;23602;51.084;7.090;2023-05-02T02:24:44;100581.00;;;9.05;100.00
37764;BME280;23602;51.084;7.090;2023-05-02T02:27:10;100584.09;;;9.08;100.00
37764;BME280;23602;51.084;7.090;2023-05-02T02:29:36;100585.00;;;9.15;100.00
37764;BME280;23602;51.084;7.090;2023-05-02T02:32:01;100594.72;;;9.16;100.00
37764;BME280;23602;51.084;7.090;2023-05-02T02:34:27;100596.81;;;9.21;100.00
37764;BME280;23602;51.084;7.090;2023-05-02T02:41:54;100617.34;;;9.28;100.00
37764;BME280;23602;51.084;7.090;2023-05-02T02:44:40;100618.81;;;9.31;100.00
37764;BME280;23602;51.084;7.090;2023-05-02T02:47:28;100629.16;;;9.34;100.00
37764;BME280;23602;51.084;7.090;2023-05-02T02:53:03;100638.31;;;9.39;100.00
37764;BME280;23602;51.084;7.090;2023-05-02T02:58:32;100636.09;;;9.43;100.00
37764;BME280;23602;51.084;7.090;2023-05-02T03:01:05;100638.38;;;9.46;100.00
37764;BME280;23602;51.084;7.090;2023-05-02T03:03:35;100632.81;;;9.47;100.00
37764;BME280;23602;51.084;7.090;2023-05-02T03:06:03;100635.50;;;9.47;100.00
37764;BME280;23602;51.084;7.090;2023-05-02T03:08:37;100643.34;;;9.49;100.00
37764;BME280;23602;51.084;7.090;2023-05-02T03:11:05;100647.88;;;9.48;100.00
37764;BME280;23602;51.084;7.090;2023-05-02T03:13:30;100647.88;;;9.48;100.00
37764;BME280;23602;51.084;7.090;2023-05-02T03:18:39;100652.88;;;9.51;100.00
37764;BME280;23602;51.084;7.090;2023-05-02T03:21:05;100650.81;;;9.53;100.00
37764;BME280;23602;51.084;7.090;2023-05-02T03:23:30;100658.25;;;9.51;100.00
37764;BME280;23602;51.084;7.090;2023-05-02T03:25:56;100655.56;;;9.51;100.00
37764;BME280;23602;51.084;7.090;2023-05-02T03:28:21;100656.19;;;9.53;100.00
37764;BME280;23602;51.084;7.090;2023-05-02T03:30:46;100658.06;;;9.53;100.00
37764;BME280;23602;51.084;7.090;2023-05-02T03:33:12;100661.19;;;9.57;100.00
37764;BME280;23602;51.084;7.090;2023-05-02T03:35:37;100652.88;;;9.51;100.00
37764;BME280;23602;51.084;7.090;2023-05-02T03:38:03;100654.53;;;9.52;100.00
37764;BME280;23602;51.084;7.090;2023-05-02T03:40:28;100666.13;;;9.53;100.00
37764;BME280;23602;51.084;7.090;2023-05-02T03:42:56;100670.66;;;9.52;100.00
37764;BME280;23602;51.084;7.090;2023-05-02T03:45:24;100663.44;;;9.53;100.00
37764;BME280;23602;51.084;7.090;2023-05-02T03:47:50;100670.28;;;9.56;100.00
37764;BME280;23602;51.084;7.090;2023-05-02T03:50:15;100679.97;;;9.57;100.00
37764;BME280;23602;51.084;7.090;2023-05-02T03:52:41;100677.47;;;9.55;100.00
37764;BME280;23602;51.084;7.090;2023-05-02T03:55:06;100672.75;;;9.57;100.00
37764;BME280;23602;51.084;7.090;2023-05-02T03:57:32;100676.06;;;9.59;100.00
37764;BME280;23602;51.084;7.090;2023-05-02T03:59:57;100674.84;;;9.62;100.00
37764;BME280;23602;51.084;7.090;2023-05-02T04:02:23;100667.84;;;9.61;100.00
37764;BME280;23602;51.084;7.090;2023-05-02T04:04:49;100669.50;;;9.62;100.00
37764;BME280;23602;51.084;7.090;2023-05-02T04:07:16;100675.06;;;9.60;100.00
37764;BME280;23602;51.084;7.090;2023-05-02T04:09:43;100676.72;;;9.61;100.00
37764;BME280;23602;51.084;7.090;2023-05-02T04:12:09;100674.22;;;9.60;100.00
37764;BME280;23602;51.084;7.090;2023-05-02T04:14:34;100676.91;;;9.60;100.00
37764;BME280;23602;51.084;7.090;2023-05-02T04:16:59;100667.84;;;9.61;100.00
37764;BME280;23602;51.084;7.090;2023-05-02T04:19:25;100669.69;;;9.60;100.00
37764;BME280;23602;51.084;7.090;2023-05-02T04:21:51;100677.53;;;9.62;100.00
37764;BME280;23602;51.084;7.090;2023-05-02T04:24:16;100676.53;;;9.63;100.00
37764;BME280;23602;51.084;7.090;2023-05-02T04:26:41;100673.84;;;9.63;100.00
37764;BME280;23602;51.084;7.090;2023-05-02T04:29:07;100676.34;;;9.64;100.00
37764;BME280;23602;51.084;7.090;2023-05-02T04:31:32;100685.22;;;9.65;100.00
37764;BME280;23602;51.084;7.090;2023-05-02T04:33:57;100696.59;;;9.67;100.00
37764;BME280;23602;51.084;7.090;2023-05-02T04:36:23;100698.25;;;9.68;100.00
37764;BME280;23602;51.084;7.090;2023-05-02T04:38:49;100696.59;;;9.67;100.00
37764;BME280;23602;51.084;7.090;2023-05-02T04:41:15;100693.53;;;9.70;100.00
37764;BME280;23602;51.084;7.090;2023-05-02T04:43:41;100683.44;;;9.72;100.00
37764;BME280;23602;51.084;7.090;2023-05-02T04:46:06;100692.94;;;9.74;100.00
37764;BME280;23602;51.084;7.090;2023-05-02T04:48:31;100699.16;;;9.75;100.00
37764;BME280;23602;51.084;7.090;2023-05-02T04:50:57;100697.31;;;9.75;100.00
37764;BME280;23602;51.084;7.090;2023-05-02T04:53:23;100711.19;;;9.79;100.00
37764;BME280;23602;51.084;7.090;2023-05-02T04:55:48;100712.84;;;9.80;100.00
37764;BME280;23602;51.084;7.090;2023-05-02T04:58:14;100717.81;;;9.83;100.00
37764;BME280;23602;51.084;7.090;2023-05-02T05:00:39;100725.69;;;9.84;100.00
37764;BME280;23602;51.084;7.090;2023-05-02T05:03:05;100729.19;;;9.85;100.00
37764;BME280;23602;51.084;7.090;2023-05-02T05:05:30;100732.53;;;9.87;100.00
37764;BME280;23602;51.084;7.090;2023-05-02T05:07:58;100734.19;;;9.88;100.00
37764;BME280;23602;51.084;7.090;2023-05-02T05:10:23;100735.88;;;9.89;100.00
37764;BME280;23602;51.084;7.090;2023-05-02T05:12:49;100736.50;;;9.91;100.00
37764;BME280;23602;51.084;7.090;2023-05-02T05:15:15;100740.84;;;9.92;100.00
37764;BME280;23602;51.084;7.090;2023-05-02T05:17:40;100745.00;;;9.94;100.00
37764;BME280;23602;51.084;7.090;2023-05-02T05:20:06;100746.88;;;9.94;100.00
37764;BME280;23602;51.084;7.090;2023-05-02T05:22:37;100756.41;;;9.96;100.00
37764;BME280;23602;51.084;7.090;2023-05-02T05:25:02;100759.72;;;9.98;100.00
37764;BME280;23602;51.084;7.090;2023-05-02T05:27:27;100758.03;;;9.97;100.00
37764;BME280;23602;51.084;7.090;2023-05-02T05:29:53;100757.19;;;9.97;100.00
37764;BME280;23602;51.084;7.090;2023-05-02T05:32:19;100763.22;;;9.99;100.00
37764;BME280;23602;51.084;7.090;2023-05-02T05:34:46;100767.75;;;9.98;100.00
37764;BME280;23602;51.084;7.090;2023-05-02T05:37:11;100769.41;;;9.99;100.00
37764;BME280;23602;51.084;7.090;2023-05-02T05:39:36;100768.59;;;9.99;100.00
37764;BME280;23602;51.084;7.090;2023-05-02T05:42:02;100776.44;;;10.00;100.00
37764;BME280;23602;51.084;7.090;2023-05-02T05:44:27;100774.03;;;10.05;100.00
37764;BME280;23602;51.084;7.090;2023-05-02T05:46:55;100779.88;;;10.09;100.00
37764;BME280;23602;51.084;7.090;2023-05-02T05:49:21;100786.72;;;10.11;100.00
37764;BME280;23602;51.084;7.090;2023-05-02T05:51:46;100788.22;;;10.14;100.00
37764;BME280;23602;51.084;7.090;2023-05-02T05:54:19;100788.56;;;10.11;100.00
37764;BME280;23602;51.084;7.090;2023-05-02T05:56:44;100797.28;;;10.13;100.00
37764;BME280;23602;51.084;7.090;2023-05-02T05:59:09;100802.28;;;10.16;100.00
37764;BME280;23602;51.084;7.090;2023-05-02T06:01:35;100806.06;;;10.22;100.00
37764;BME280;23602;51.084;7.090;2023-05-02T06:04:00;100806.84;;;10.22;100.00
37764;BME280;23602;51.084;7.090;2023-05-02T06:06:29;100810.59;;;10.21;100.00
37764;BME280;23602;51.084;7.090;2023-05-02T06:08:56;100811.22;;;10.23;100.00
37764;BME280;23602;51.084;7.090;2023-05-02T06:11:21;100817.59;;;10.22;100.00
37764;BME280;23602;51.084;7.090;2023-05-02T06:13:48;100819.28;;;10.23;100.00
37764;BME280;23602;51.084;7.090;2023-05-02T06:16:13;100814.50;;;10.19;100.00
37764;BME280;23602;51.084;7.090;2023-05-02T06:18:39;100818.81;;;10.20;100.00
37764;BME280;23602;51.084;7.090;2023-05-02T06:21:07;100820.13;;;10.24;100.00
37764;BME280;23602;51.084;7.090;2023-05-02T06:23:32;100817.59;;;10.22;100.00
37764;BME280;23602;51.084;7.090;2023-05-02T06:26:00;100824.28;;;10.26;100.00
37764;BME280;23602;51.084;7.090;2023-05-02T06:28:26;100827.59;;;10.28;100.00
37764;BME280;23602;51.084;7.090;2023-05-02T06:33:26;100832.13;;;10.28;100.00
37764;BME280;23602;51.084;7.090;2023-05-02T06:35:53;100842.50;;;10.31;100.00
37764;BME280;23602;51.084;7.090;2023-05-02T06:38:19;100847.03;;;10.30;100.00
37764;BME280;23602;51.084;7.090;2023-05-02T06:40:44;100841.50;;;10.32;100.00
37764;BME280;23602;51.084;7.090;2023-05-02T06:43:12;100846.03;;;10.31;100.00
37764;BME280;23602;51.084;7.090;2023-05-02T06:45:38;100850.09;;;10.27;100.00
37764;BME280;23602;51.084;7.090;2023-05-02T06:48:05;100855.09;;;10.30;100.00
37764;BME280;23602;51.084;7.090;2023-05-02T06:50:40;100863.53;;;10.27;100.00
37764;BME280;23602;51.084;7.090;2023-05-02T06:53:05;100866.03;;;10.29;100.00
37764;BME280;23602;51.084;7.090;2023-05-02T06:55:31;100871.88;;;10.32;100.00
37764;BME280;23602;51.084;7.090;2023-05-02T06:57:56;100878.91;;;10.33;100.00
37764;BME280;23602;51.084;7.090;2023-05-02T07:00:25;100879.75;;;10.34;100.00
37764;BME280;23602;51.084;7.090;2023-05-02T07:02:52;100887.22;;;10.38;100.00
37764;BME280;23602;51.084;7.090;2023-05-02T07:05:18;100889.16;;;10.44;100.00
37764;BME280;23602;51.084;7.090;2023-05-02T07:07:44;100890.81;;;10.45;100.00
37764;BME280;23602;51.084;7.090;2023-05-02T07:10:10;100898.44;;;10.42;100.00
37764;BME280;23602;51.084;7.090;2023-05-02T07:12:48;100907.06;;;10.37;100.00
37764;BME280;23602;51.084;7.090;2023-05-02T07:15:14;100908.28;;;10.35;100.00
37764;BME280;23602;51.084;7.090;2023-05-02T07:17:41;100912.34;;;10.31;100.00
37764;BME280;23602;51.084;7.090;2023-05-02T07:20:06;100908.44;;;10.33;100.00
37764;BME280;23602;51.084;7.090;2023-05-02T07:22:32;100911.50;;;10.30;100.00
37764;BME280;23602;51.084;7.090;2023-05-02T07:24:58;100902.19;;;10.26;100.00
37764;BME280;23602;51.084;7.090;2023-05-02T07:27:23;100903.81;;;10.27;100.00
37764;BME280;23602;51.084;7.090;2023-05-02T07:29:49;100900.13;;;10.28;100.00
37764;BME280;23602;51.084;7.090;2023-05-02T07:32:24;100902.81;;;10.28;100.00
37764;BME280;23602;51.084;7.090;2023-05-02T07:34:50;100905.97;;;10.32;100.00
37764;BME280;23602;51.084;7.090;2023-05-02T07:37:18;100912.03;;;10.40;100.00
37764;BME280;23602;51.084;7.090;2023-05-02T07:39:43;100916.94;;;10.51;100.00
37764;BME280;23602;51.084;7.090;2023-05-02T07:42:09;100911.94;;;10.69;100.00
37764;BME280;23602;51.084;7.090;2023-05-02T07:44:34;100913.97;;;10.89;100.00
37764;BME280;23602;51.084;7.090;2023-05-02T07:47:00;100921.16;;;11.03;100.00
37764;BME280;23602;51.084;7.090;2023-05-02T07:49:26;100910.28;;;11.11;100.00
37764;BME280;23602;51.084;7.090;2023-05-02T07:51:51;100908.63;;;11.16;100.00
37764;BME280;23602;51.084;7.090;2023-05-02T07:54:17;100906.66;;;11.25;100.00
37764;BME280;23602;51.084;7.090;2023-05-02T07:56:46;100908.16;;;11.34;100.00
37764;BME280;23602;51.084;7.090;2023-05-02T07:59:34;100903.47;;;11.42;100.00
37764;BME280;23602;51.084;7.090;2023-05-02T08:08:49;100878.78;;;11.39;100.00
37764;BME280;23602;51.084;7.090;2023-05-02T08:14:10;100879.59;;;11.33;100.00
37764;BME280;23602;51.084;7.090;2023-05-02T08:20:08;100888.91;;;11.30;100.00
37764;BME280;23602;51.084;7.090;2023-05-02T08:22:39;100892.91;;;11.41;100.00
37764;BME280;23602;51.084;7.090;2023-05-02T08:25:18;100890.22;;;11.41;100.00
37764;BME280;23602;51.084;7.090;2023-05-02T08:27:54;100891.28;;;11.47;100.00
37764;BME280;23602;51.084;7.090;2023-05-02T08:30:22;100877.88;;;11.53;100.00
37764;BME280;23602;51.084;7.090;2023-05-02T08:32:50;100883.72;;;11.63;100.00
37764;BME280;23602;51.084;7.090;2023-05-02T08:35:16;100888.91;;;11.65;100.00
37764;BME280;23602;51.084;7.090;2023-05-02T08:37:52;100882.47;;;11.59;100.00
37764;BME280;23602;51.084;7.090;2023-05-02T08:40:26;100877.81;;;11.47;100.00
37764;BME280;23602;51.084;7.090;2023-05-02T08:42:56;100883.69;;;11.29;100.00
37764;BME280;23602;51.084;7.090;2023-05-02T08:45:47;100889.44;;;11.19;100.00
37764;BME280;23602;51.084;7.090;2023-05-02T08:48:14;100897.59;;;11.05;100.00
37764;BME280;23602;51.084;7.090;2023-05-02T08:50:50;100903.91;;;10.91;100.00
37764;BME280;23602;51.084;7.090;2023-05-02T08:56:02;100920.91;;;10.76;100.00
37764;BME280;23602;51.084;7.090;2023-05-02T08:58:30;100932.88;;;10.74;100.00
37764;BME280;23602;51.084;7.090;2023-05-02T09:01:16;100929.88;;;10.62;100.00
37764;BME280;23602;51.084;7.090;2023-05-02T09:03:45;100927.31;;;10.54;100.00
37764;BME280;23602;51.084;7.090;2023-05-02T09:06:19;100927.03;;;10.49;100.00
37764;BME280;23602;51.084;7.090;2023-05-02T09:08:52;100933.44;;;10.48;100.00
37764;BME280;23602;51.084;7.090;2023-05-02T09:11:37;100942.78;;;10.52;100.00
37764;BME280;23602;51.084;7.090;2023-05-02T09:14:05;100944.25;;;10.55;100.00
37764;BME280;23602;51.084;7.090;2023-05-02T09:16:37;100949.38;;;10.50;100.00
37764;BME280;23602;51.084;7.090;2023-05-02T09:19:04;100946.44;;;10.45;100.00
37764;BME280;23602;51.084;7.090;2023-05-02T09:21:36;100947.13;;;10.53;100.00
37764;BME280;23602;51.084;7.090;2023-05-02T09:24:15;100949.69;;;10.61;100.00
37764;BME280;23602;51.084;7.090;2023-05-02T09:26:42;100946.19;;;10.61;100.00
37764;BME280;23602;51.084;7.090;2023-05-02T09:29:12;100945.16;;;10.62;100.00
37764;BME280;23602;51.084;7.090;2023-05-02T09:32:03;100960.72;;;10.66;100.00
37764;BME280;23602;51.084;7.090;2023-05-02T09:37:57;100951.50;;;10.75;100.00
37764;BME280;23602;51.084;7.090;2023-05-02T09:40:23;100955.53;;;10.86;100.00
37764;BME280;23602;51.084;7.090;2023-05-02T09:42:59;100952.16;;;10.99;100.00
37764;BME280;23602;51.084;7.090;2023-05-02T09:45:40;100937.09;;;11.04;100.00
37764;BME280;23602;51.084;7.090;2023-05-02T09:48:22;100944.19;;;11.12;100.00
37764;BME280;23602;51.084;7.090;2023-05-02T09:50:49;100950.66;;;11.17;100.00
37764;BME280;23602;51.084;7.090;2023-05-02T09:53:33;100949.19;;;11.15;100.00
37764;BME280;23602;51.084;7.090;2023-05-02T09:56:34;100943.56;;;11.31;100.00
37764;BME280;23602;51.084;7.090;2023-05-02T09:59:23;100950.94;;;11.50;100.00
37764;BME280;23602;51.084;7.090;2023-05-02T10:02:01;100947.72;;;11.61;100.00
37764;BME280;23602;51.084;7.090;2023-05-02T10:04:27;100945.03;;;11.61;100.00
37764;BME280;23602;51.084;7.090;2023-05-02T10:06:54;100958.22;;;11.56;100.00
37764;BME280;23602;51.084;7.090;2023-05-02T10:09:26;100958.41;;;11.55;100.00
37764;BME280;23602;51.084;7.090;2023-05-02T10:11:56;100963.56;;;11.50;100.00
37764;BME280;23602;51.084;7.090;2023-05-02T10:14:38;100971.84;;;11.48;100.00
37764;BME280;23602;51.084;7.090;2023-05-02T10:17:14;100970.25;;;11.60;100.00
37764;BME280;23602;51.084;7.090;2023-05-02T10:20:07;100960.63;;;11.72;100.00
37764;BME280;23602;51.084;7.090;2023-05-02T10:22:35;100952.94;;;11.97;100.00
37764;BME280;23602;51.084;7.090;2023-05-02T10:25:06;100959.56;;;12.35;100.00
37764;BME280;23602;51.084;7.090;2023-05-02T10:27:52;100957.38;;;12.65;100.00
37764;BME280;23602;51.084;7.090;2023-05-02T10:30:20;100952.63;;;12.74;100.00
37764;BME280;23602;51.084;7.090;2023-05-02T10:32:48;100953.88;;;12.78;100.00
37764;BME280;23602;51.084;7.090;2023-05-02T10:35:17;100964.47;;;12.86;100.00
37764;BME280;23602;51.084;7.090;2023-05-02T10:37:46;100959.47;;;12.76;100.00
37764;BME280;23602;51.084;7.090;2023-05-02T10:40:14;100962.34;;;12.68;100.00
37764;BME280;23602;51.084;7.090;2023-05-02T10:42:48;100966.66;;;12.56;100.00
37764;BME280;23602;51.084;7.090;2023-05-02T10:45:29;100967.88;;;12.47;100.00
37764;BME280;23602;51.084;7.090;2023-05-02T10:51:02;100964.56;;;12.45;100.00
37764;BME280;23602;51.084;7.090;2023-05-02T10:53:30;100959.00;;;12.59;100.00
37764;BME280;23602;51.084;7.090;2023-05-02T10:56:12;100956.78;;;12.76;100.00
37764;BME280;23602;51.084;7.090;2023-05-02T10:58:38;100959.09;;;13.05;100.00
37764;BME280;23602;51.084;7.090;2023-05-02T11:03:57;100964.78;;;13.37;100.00
37764;BME280;23602;51.084;7.090;2023-05-02T11:11:45;100953.56;;;13.40;100.00
37764;BME280;23602;51.084;7.090;2023-05-02T11:22:32;100958.38;;;12.57;100.00
37764;BME280;23602;51.084;7.090;2023-05-02T11:25:01;100963.38;;;12.60;100.00
37764;BME280;23602;51.084;7.090;2023-05-02T11:30:11;100947.31;;;13.32;100.00
37764;BME280;23602;51.084;7.090;2023-05-02T11:37:51;100941.31;;;14.27;100.00
37764;BME280;23602;51.084;7.090;2023-05-02T11:40:21;100937.56;;;14.35;100.00
37764;BME280;23602;51.084;7.090;2023-05-02T11:43:17;100940.84;;;14.43;100.00
37764;BME280;23602;51.084;7.090;2023-05-02T11:46:05;100936.59;;;14.10;100.00
37764;BME280;23602;51.084;7.090;2023-05-02T11:48:40;100945.50;;;14.17;100.00
37764;BME280;23602;51.084;7.090;2023-05-02T11:51:11;100949.72;;;14.00;100.00
37764;BME280;23602;51.084;7.090;2023-05-02T11:53:39;100957.69;;;13.75;100.00
37764;BME280;23602;51.084;7.090;2023-05-02T11:56:05;100969.34;;;13.49;100.00
37764;BME280;23602;51.084;7.090;2023-05-02T11:58:43;100967.44;;;13.30;100.00
37764;BME280;23602;51.084;7.090;2023-05-02T12:01:19;100978.25;;;13.10;100.00
37764;BME280;23602;51.084;7.090;2023-05-02T12:03:45;100971.75;;;13.05;100.00
37764;BME280;23602;51.084;7.090;2023-05-02T12:06:15;100972.59;;;13.05;100.00
37764;BME280;23602;51.084;7.090;2023-05-02T12:08:42;100974.28;;;13.13;100.00
37764;BME280;23602;51.084;7.090;2023-05-02T12:11:22;100968.72;;;13.21;100.00
37764;BME280;23602;51.084;7.090;2023-05-02T12:13:50;100980.53;;;13.13;100.00
37764;BME280;23602;51.084;7.090;2023-05-02T12:16:19;100981.78;;;13.17;100.00
37764;BME280;23602;51.084;7.090;2023-05-02T12:18:45;100990.91;;;13.16;100.00
37764;BME280;23602;51.084;7.090;2023-05-02T12:21:11;100984.09;;;13.27;100.00
37764;BME280;23602;51.084;7.090;2023-05-02T12:23:39;100985.75;;;13.35;100.00
37764;BME280;23602;51.084;7.090;2023-05-02T12:28:48;100975.56;;;13.56;100.00
37764;BME280;23602;51.084;7.090;2023-05-02T12:31:25;100984.91;;;13.67;100.00
37764;BME280;23602;51.084;7.090;2023-05-02T12:34:05;100977.19;;;13.77;100.00
37764;BME280;23602;51.084;7.090;2023-05-02T12:36:30;100975.94;;;13.86;100.00
37764;BME280;23602;51.084;7.090;2023-05-02T12:39:15;100983.97;;;14.12;100.00
37764;BME280;23602;51.084;7.090;2023-05-02T12:41:51;100990.59;;;14.80;100.00
37764;BME280;23602;51.084;7.090;2023-05-02T12:44:34;100988.25;;;15.22;100.00
37764;BME280;23602;51.084;7.090;2023-05-02T12:47:02;100987.66;;;15.44;100.00
37764;BME280;23602;51.084;7.090;2023-05-02T12:49:28;100982.97;;;15.82;100.00
37764;BME280;23602;51.084;7.090;2023-05-02T12:51:53;100980.66;;;15.86;100.00
37764;BME280;23602;51.084;7.090;2023-05-02T12:54:20;100992.38;;;15.80;100.00
37764;BME280;23602;51.084;7.090;2023-05-02T12:56:45;100995.19;;;15.92;100.00
37764;BME280;23602;51.084;7.090;2023-05-02T12:59:32;101001.13;;;15.82;100.00
37764;BME280;23602;51.084;7.090;2023-05-02T13:01:59;101005.94;;;15.80;100.00
37764;BME280;23602;51.084;7.090;2023-05-02T13:04:37;101016.47;;;15.45;100.00
37764;BME280;23602;51.084;7.090;2023-05-02T13:07:03;101017.81;;;14.92;100.00
37764;BME280;23602;51.084;7.090;2023-05-02T13:09:39;101018.13;;;14.71;100.00
37764;BME280;23602;51.084;7.090;2023-05-02T13:12:29;101024.09;;;14.41;100.00
37764;BME280;23602;51.084;7.090;2023-05-02T13:15:01;101019.94;;;14.39;100.00
37764;BME280;23602;51.084;7.090;2023-05-02T13:17:37;101024.09;;;14.41;100.00
37764;BME280;23602;51.084;7.090;2023-05-02T13:20:12;101023.81;;;14.49;100.00
37764;BME280;23602;51.084;7.090;2023-05-02T13:22:40;101015.94;;;14.48;100.00
37764;BME280;23602;51.084;7.090;2023-05-02T13:25:06;101021.25;;;14.68;100.00
37764;BME280;23602;51.084;7.090;2023-05-02T13:27:40;101014.41;;;14.65;100.00
37764;BME280;23602;51.084;7.090;2023-05-02T13:30:05;101021.13;;;14.49;100.00
37764;BME280;23602;51.084;7.090;2023-05-02T13:32:38;101029.50;;;14.22;100.00
37764;BME280;23602;51.084;7.090;2023-05-02T13:35:07;101021.81;;;14.19;100.00
37764;BME280;23602;51.084;7.090;2023-05-02T13:37:42;101021.81;;;14.32;100.00
37764;BME280;23602;51.084;7.090;2023-05-02T13:40:08;101029.91;;;14.25;100.00
37764;BME280;23602;51.084;7.090;2023-05-02T13:42:33;101033.25;;;14.14;100.00
37764;BME280;23602;51.084;7.090;2023-05-02T13:45:09;101027.47;;;14.11;100.00
37764;BME280;23602;51.084;7.090;2023-05-02T13:47:47;101030.34;;;14.22;100.00
37764;BME280;23602;51.084;7.090;2023-05-02T13:50:33;101029.72;;;14.20;100.00
37764;BME280;23602;51.084;7.090;2023-05-02T13:53:21;101031.56;;;14.39;100.00
37764;BME280;23602;51.084;7.090;2023-05-02T13:55:46;101025.69;;;14.55;100.00
37764;BME280;23602;51.084;7.090;2023-05-02T13:58:15;101024.13;;;14.15;89.21
37764;BME280;23602;51.084;7.090;2023-05-02T14:00:53;101023.94;;;13.97;97.80
37764;BME280;23602;51.084;7.090;2023-05-02T14:03:38;101025.41;;;13.86;100.00
37764;BME280;23602;51.084;7.090;2023-05-02T14:06:13;101030.56;;;14.14;100.00
37764;BME280;23602;51.084;7.090;2023-05-02T14:08:39;101023.69;;;14.18;100.00
37764;BME280;23602;51.084;7.090;2023-05-02T14:11:09;101024.72;;;14.17;100.00